createdAt,value
2023-04-04T11:35:46.685Z,9.90
2023-04-04T11:36:46.597Z,10.12
2023-04-04T11:37:46.569Z,10.32
2023-04-04T11:38:46.555Z,10.52
2023-04-04T11:39:46.531Z,10.74
2023-04-04T11:40:46.493Z,11.18
2023-04-04T11:41:46.482Z,11.64
2023-04-04T11:42:46.484Z,11.65
2023-04-04T11:43:46.456Z,11.62
2023-04-04T11:44:46.407Z,11.62
2023-04-04T11:45:46.439Z,12.16
2023-04-04T11:46:46.386Z,12.65
2023-04-04T11:47:46.426Z,12.90
2023-04-04T11:48:46.345Z,13.07
2023-04-04T11:49:46.334Z,12.89
2023-04-04T11:50:46.303Z,11.55
2023-04-04T11:51:46.302Z,12.16
2023-04-04T11:52:46.310Z,12.68
2023-04-04T11:53:46.254Z,13.10
2023-04-04T11:54:46.232Z,13.23
2023-04-04T11:55:46.217Z,13.23
2023-04-04T11:56:46.188Z,13.71
2023-04-04T11:57:46.188Z,13.51
2023-04-04T11:58:46.152Z,14.27
2023-04-04T11:59:46.203Z,14.33
2023-04-04T12:00:46.108Z,14.09
2023-04-04T12:01:46.103Z,13.87
2023-04-04T12:02:46.138Z,14.09
2023-04-04T12:03:46.110Z,14.61
2023-04-04T12:04:46.086Z,14.99
2023-04-04T12:05:46.088Z,15.50
2023-04-04T12:06:45.994Z,15.46
2023-04-04T12:07:45.991Z,14.70
2023-04-04T12:08:45.974Z,14.43
2023-04-04T12:09:45.978Z,13.73
2023-04-04T12:10:45.952Z,14.09
2023-04-04T12:11:45.920Z,13.82
2023-04-04T12:12:45.918Z,13.87
2023-04-04T12:13:45.901Z,14.03
2023-04-04T12:14:45.887Z,14.15
2023-04-04T12:15:45.880Z,14.33
2023-04-04T12:16:45.824Z,14.68
2023-04-04T12:17:46.044Z,14.77
2023-04-04T12:18:45.802Z,15.11
2023-04-04T12:19:45.797Z,15.32
2023-04-04T12:20:45.762Z,15.21
2023-04-04T12:21:45.763Z,14.98
2023-04-04T12:22:45.746Z,15.21
2023-04-04T12:23:45.733Z,15.27
2023-04-04T12:24:45.691Z,15.10
2023-04-04T12:25:45.680Z,15.11
2023-04-04T12:26:45.678Z,14.54
2023-04-04T12:27:45.656Z,14.00
2023-04-04T12:28:45.644Z,14.15
2023-04-04T12:29:45.631Z,14.37
2023-04-04T12:30:45.607Z,14.61
2023-04-04T12:31:45.622Z,13.99
2023-04-04T12:32:45.605Z,14.12
2023-04-04T12:33:45.574Z,14.50
2023-04-04T12:34:48.818Z,15.27
2023-04-04T12:35:45.538Z,14.68
2023-04-04T12:36:45.492Z,14.55
2023-04-04T12:37:45.498Z,15.09
2023-04-04T12:38:45.480Z,15.46
2023-04-04T12:39:45.455Z,16.09
2023-04-04T12:40:45.431Z,16.12
2023-04-04T12:41:45.439Z,15.92
2023-04-04T12:42:45.434Z,16.11
2023-04-04T12:43:45.417Z,15.78
2023-04-04T12:44:45.376Z,16.24
2023-04-04T12:45:45.379Z,16.41
2023-04-04T12:46:47.830Z,16.71
2023-04-04T12:47:45.351Z,16.00
2023-04-04T12:48:45.316Z,15.50
2023-04-04T12:49:45.360Z,14.64
2023-04-04T12:50:45.279Z,15.09
2023-04-04T12:51:45.278Z,14.86
2023-04-04T12:52:46.138Z,15.14
2023-04-04T12:53:45.227Z,15.09
2023-04-04T12:54:46.989Z,15.06
2023-04-04T12:55:45.218Z,15.20
2023-04-04T12:56:45.208Z,15.28
2023-04-04T12:57:45.178Z,15.67
2023-04-04T12:58:47.105Z,14.86
2023-04-04T12:59:45.157Z,15.47
2023-04-04T13:00:45.136Z,16.25
2023-04-04T13:01:45.145Z,16.09
2023-04-04T13:02:45.150Z,16.50
2023-04-04T13:03:45.125Z,15.78
2023-04-04T13:04:45.099Z,16.01
2023-04-04T13:05:45.071Z,16.17
2023-04-04T13:06:45.066Z,15.86
2023-04-04T13:07:45.085Z,15.71
2023-04-04T13:08:45.018Z,14.84
2023-04-04T13:09:45.011Z,15.27
2023-04-04T13:10:44.986Z,16.09
2023-04-04T13:11:44.982Z,15.47
2023-04-04T13:12:44.958Z,14.68
2023-04-04T13:13:45.029Z,14.07
2023-04-04T13:14:44.931Z,14.09
2023-04-04T13:15:44.923Z,14.29
2023-04-04T13:16:44.920Z,14.03
2023-04-04T13:17:44.915Z,14.03
2023-04-04T13:18:44.913Z,14.28
2023-04-04T13:19:44.878Z,14.20
2023-04-04T13:20:44.874Z,14.29
2023-04-04T13:21:44.826Z,14.07
2023-04-04T13:22:44.829Z,14.29
2023-04-04T13:23:44.839Z,14.15
2023-04-04T13:24:44.803Z,14.50
2023-04-04T13:25:44.790Z,14.78
2023-04-04T13:26:44.805Z,14.88
2023-04-04T13:27:44.786Z,14.88
2023-04-04T13:28:44.797Z,15.28
2023-04-04T13:29:44.764Z,15.50
2023-04-04T13:30:44.773Z,16.15
2023-04-04T13:31:44.763Z,15.94
2023-04-04T13:32:44.803Z,15.74
2023-04-04T13:33:44.716Z,16.09
2023-04-04T13:34:44.702Z,15.50
2023-04-04T13:35:44.685Z,15.59
2023-04-04T13:36:44.753Z,15.46
2023-04-04T13:37:44.668Z,15.29
2023-04-04T13:38:44.674Z,15.56
2023-04-04T13:39:44.690Z,15.11
2023-04-04T13:40:44.674Z,14.96
2023-04-04T13:41:44.619Z,15.38
2023-04-04T13:42:44.618Z,15.78
2023-04-04T13:43:44.596Z,16.46
2023-04-04T13:44:44.631Z,17.12
2023-04-04T13:45:44.623Z,16.81
2023-04-04T13:46:44.594Z,16.24
2023-04-04T13:47:44.570Z,15.25
2023-04-04T13:48:44.552Z,15.38
2023-04-04T13:49:44.543Z,15.83
2023-04-04T13:50:44.537Z,15.97
2023-04-04T13:51:44.509Z,15.51
2023-04-04T13:52:45.230Z,15.41
2023-04-04T13:53:44.505Z,15.68
2023-04-04T13:54:44.515Z,16.53
2023-04-04T13:56:01.519Z,16.96
2023-04-04T13:56:44.461Z,16.91
2023-04-04T13:57:44.458Z,16.98
2023-04-04T13:58:44.476Z,16.71
2023-04-04T13:59:44.439Z,16.39
2023-04-04T14:00:44.415Z,15.72
2023-04-04T14:01:44.419Z,15.74
2023-04-04T14:02:44.481Z,16.39
2023-04-04T14:03:44.404Z,16.79
2023-04-04T14:04:44.408Z,17.23
2023-04-04T14:05:44.374Z,17.28
2023-04-04T14:06:44.375Z,17.78
2023-04-04T14:07:44.335Z,17.38
2023-04-04T14:08:44.330Z,16.20
2023-04-04T14:09:44.326Z,14.98
2023-04-04T14:10:44.307Z,15.39
2023-04-04T14:11:44.311Z,15.19
2023-04-04T14:12:44.303Z,15.09
2023-04-04T14:13:44.286Z,15.25
2023-04-04T14:14:44.297Z,15.44
2023-04-04T14:15:44.507Z,15.74
2023-04-04T14:16:44.267Z,16.27
2023-04-04T14:17:44.247Z,16.53
2023-04-04T14:18:44.226Z,17.04
2023-04-04T14:19:44.241Z,16.53
2023-04-04T14:20:44.229Z,16.46
2023-04-04T14:21:44.220Z,16.86
2023-04-04T14:22:44.206Z,17.01
2023-04-04T14:23:44.175Z,16.66
2023-04-04T14:24:44.200Z,16.97
2023-04-04T14:25:44.180Z,16.82
2023-04-04T14:26:44.169Z,16.68
2023-04-04T14:27:44.132Z,17.38
2023-04-04T14:28:44.132Z,16.63
2023-04-04T14:29:44.148Z,15.72
2023-04-04T14:30:44.118Z,16.34
2023-04-04T14:31:44.201Z,16.88
2023-04-04T14:32:44.187Z,16.94
2023-04-04T14:33:44.095Z,15.68
2023-04-04T14:34:44.088Z,15.54
2023-04-04T14:35:44.138Z,15.11
2023-04-04T14:36:44.100Z,15.47
2023-04-04T14:37:44.067Z,15.80
2023-04-04T14:38:44.042Z,16.38
2023-04-04T14:39:44.043Z,16.04
2023-04-04T14:40:44.044Z,16.25
2023-04-04T14:41:44.030Z,16.79
2023-04-04T14:42:44.010Z,16.89
2023-04-04T14:43:44.018Z,17.16
2023-04-04T14:44:44.021Z,17.54
2023-04-04T14:45:43.995Z,17.72
2023-04-04T14:46:44.049Z,17.28
2023-04-04T14:47:44.007Z,17.25
2023-04-04T14:48:43.961Z,16.57
2023-04-04T14:49:43.984Z,17.11
2023-04-04T14:50:43.966Z,17.22
2023-04-04T14:51:43.932Z,16.98
2023-04-04T14:52:43.931Z,16.56
2023-04-04T14:53:43.939Z,16.73
2023-04-04T14:54:43.925Z,16.42
2023-04-04T14:55:43.924Z,16.82
2023-04-04T14:56:43.920Z,16.88
2023-04-04T14:58:01.400Z,16.38
2023-04-04T14:58:43.901Z,16.50
2023-04-04T14:59:43.878Z,16.82
2023-04-04T15:00:43.878Z,16.52
2023-04-04T15:01:44.006Z,16.68
2023-04-04T15:02:43.890Z,16.31
2023-04-04T15:03:43.856Z,16.34
2023-04-04T15:04:43.981Z,15.74
2023-04-04T15:05:44.076Z,15.92
2023-04-04T15:06:43.827Z,15.83
2023-04-04T15:07:43.801Z,16.08
2023-04-04T15:08:43.837Z,17.03
2023-04-04T15:09:43.817Z,17.43
2023-04-04T15:10:43.827Z,17.64
2023-04-04T15:11:43.768Z,17.93
2023-04-04T15:12:43.800Z,17.64
2023-04-04T15:13:43.748Z,17.68
2023-04-04T15:14:43.763Z,16.81
2023-04-04T15:15:43.772Z,16.09
2023-04-04T15:16:43.787Z,15.02
2023-04-04T15:17:43.747Z,14.20
2023-04-04T15:18:43.736Z,14.20
2023-04-04T15:19:43.721Z,13.88
2023-04-04T15:20:44.067Z,13.88
2023-04-04T16:12:29.206Z,12.50
2023-04-04T16:13:29.175Z,12.71
2023-04-04T16:14:29.175Z,12.86
2023-04-04T16:15:29.163Z,13.15
2023-04-04T16:16:29.208Z,13.30
2023-04-04T16:17:29.829Z,13.44
2023-04-04T16:18:29.084Z,13.44
2023-04-04T16:19:29.061Z,13.51
2023-04-04T16:20:29.065Z,13.55
2023-04-04T16:21:29.049Z,13.69
2023-04-04T16:22:29.044Z,13.67
2023-04-04T16:23:29.013Z,13.52
2023-04-04T16:24:29.000Z,13.66
2023-04-04T16:25:29.013Z,13.85
2023-04-04T16:26:29.005Z,13.32
2023-04-04T16:27:28.969Z,13.17
2023-04-04T16:28:28.972Z,13.11
2023-04-04T16:29:28.924Z,12.87
2023-04-04T16:30:53.626Z,12.97
2023-04-04T16:33:02.769Z,12.87
2023-04-04T16:34:02.698Z,12.92
2023-04-04T16:35:02.710Z,13.03
2023-04-04T16:38:29.000Z,12.32
2023-04-04T16:39:28.941Z,12.27
